»·PEaware :: N135GD KPRC-KFMN

N135GD :: KPRC-KFMN

FLIGHT INFORMATION

Flight Status: Arrived
Operator: Privately registered:
United States
More flights under this callsign
Pilot: Graham D. (41507)
Aircraft: CESSNA 310
(C310)
More flights by this aircraft type
Origin: KPRC Love
United States
Destination: KFMN Four Corners Regl
United States
More flights between these airports :: More routes between these airports
Route: FLG RSK
File this flight plan on PilotEdge
Remarks:
Altitude:
(Current/Filed)
11,500ft
Speed:
(Current/Filed)
210kts
Departed: 09-May-23 12:45 PM
Arrived: 09-May-23 01:55 PM
Distance/Time
Traveled:
239nm/1:10
Distance/Time
To Go:
Arrived

Flight Plot

Page will automatically refresh every two minutes.

Flight plan parsing failed; only flown route is shown


Map Options




Map Legend


Flown Route
Filed Route
Departure Airport
Arrival Airport
Navaid (VOR, NDB)
Fix

Horizontal Profiles

Position Reports

Time Latitude Longitude Heading Altitude Ground
Speed
09-May-23 12:29 34.650133 -112.427742 130 5017ft 0kts
09-May-23 12:30 34.650133 -112.427742 130 5017ft 0kts
09-May-23 12:31 34.650133 -112.427742 130 5017ft 0kts
09-May-23 12:32 34.650133 -112.427742 130 5017ft 0kts
09-May-23 12:33 34.650133 -112.427742 130 5017ft 0kts
09-May-23 12:34 34.650133 -112.427742 130 5017ft 0kts
09-May-23 12:35 34.650133 -112.427742 130 5017ft 0kts
09-May-23 12:36 34.650101 -112.427692 126 5017ft 1kts
09-May-23 12:37 34.650412 -112.425248 40 5009ft 12kts
09-May-23 12:38 34.652657 -112.422876 40 4998ft 11kts
09-May-23 12:39 34.655019 -112.420344 40 4987ft 10kts
09-May-23 12:40 34.657768 -112.417415 42 4969ft 14kts
09-May-23 12:41 34.660374 -112.414656 41 4955ft 10kts
09-May-23 12:42 34.662639 -112.412363 62 4944ft 6kts
09-May-23 12:43 34.662559 -112.412097 132 4944ft 2kts
09-May-23 12:44 34.651912 -112.422367 222 5207ft 92kts
09-May-23 12:45 34.625438 -112.441758 167 6191ft 138kts
09-May-23 12:46 34.630462 -112.396963 46 7283ft 184kts
09-May-23 12:47 34.669594 -112.351090 48 7979ft 206kts
09-May-23 12:48 34.702974 -112.294203 54 8580ft 206kts
09-May-23 12:49 34.738960 -112.241450 52 9172ft 201kts
09-May-23 12:50 34.775413 -112.190074 51 9766ft 201kts
09-May-23 12:51 34.812359 -112.138686 51 10314ft 204kts
09-May-23 12:52 34.850278 -112.086179 51 10818ft 207kts
09-May-23 12:53 34.888607 -112.033158 50 11322ft 210kts
09-May-23 12:54 34.928094 -111.978487 50 11499ft 218kts
09-May-23 12:55 34.967830 -111.923380 50 11500ft 215kts
09-May-23 12:56 35.007376 -111.868486 50 11502ft 217kts
09-May-23 12:57 35.046972 -111.811022 50 11503ft 223kts
09-May-23 12:58 35.087779 -111.753385 50 11498ft 226kts
09-May-23 12:59 35.128191 -111.694693 53 11497ft 226kts
09-May-23 13:00 35.164066 -111.632311 67 11515ft 223kts
09-May-23 13:01 35.192677 -111.564633 65 11498ft 224kts
09-May-23 13:02 35.221184 -111.496991 65 11499ft 224kts
09-May-23 13:03 35.249621 -111.429117 65 11502ft 224kts
09-May-23 13:04 35.278009 -111.361030 65 11500ft 224kts
09-May-23 13:05 35.305902 -111.292880 66 11503ft 223kts
09-May-23 13:06 35.333987 -111.224703 66 11496ft 224kts
09-May-23 13:07 35.362101 -111.156662 66 11499ft 223kts
09-May-23 13:08 35.390160 -111.088715 66 11498ft 224kts
09-May-23 13:09 35.419166 -111.021003 66 11506ft 224kts
09-May-23 13:10 35.447825 -110.953444 62 11540ft 224kts
09-May-23 13:11 35.478759 -110.886837 62 11531ft 225kts
09-May-23 13:12 35.509781 -110.820308 62 11532ft 225kts
09-May-23 13:13 35.540756 -110.753703 62 11534ft 226kts
09-May-23 13:14 35.571826 -110.686972 62 11520ft 226kts
09-May-23 13:15 35.602893 -110.620039 62 11545ft 225kts
09-May-23 13:16 35.633909 -110.553134 62 11546ft 225kts
09-May-23 13:17 35.665004 -110.485972 62 11540ft 225kts
09-May-23 13:18 35.696091 -110.419149 62 11522ft 226kts
09-May-23 13:19 35.727631 -110.351303 62 11426ft 227kts
09-May-23 13:20 35.758867 -110.284312 62 11424ft 225kts
09-May-23 13:21 35.789952 -110.217555 62 11425ft 225kts
09-May-23 13:22 35.821056 -110.150870 62 11426ft 224kts
09-May-23 13:23 35.852069 -110.084343 62 11453ft 224kts
09-May-23 13:24 35.883167 -110.017634 62 11467ft 225kts
09-May-23 13:25 35.914127 -109.950825 62 11486ft 225kts
09-May-23 13:26 35.945307 -109.883835 62 11498ft 226kts
09-May-23 13:27 35.976654 -109.816645 62 11497ft 225kts
09-May-23 13:28 36.007870 -109.749657 62 11502ft 225kts
09-May-23 13:29 36.039122 -109.682572 62 11491ft 225kts
09-May-23 13:30 36.070942 -109.615789 60 11491ft 225kts
09-May-23 13:31 36.103950 -109.550130 60 11490ft 224kts
09-May-23 13:32 36.136802 -109.484803 59 11488ft 224kts
09-May-23 13:33 36.169665 -109.419472 60 11488ft 223kts
09-May-23 13:34 36.202458 -109.354364 59 11489ft 224kts
09-May-23 13:35 36.235448 -109.288828 60 11486ft 223kts
09-May-23 13:36 36.264221 -109.221441 70 11486ft 222kts
09-May-23 13:37 36.290813 -109.152086 65 11491ft 222kts
09-May-23 13:38 36.319641 -109.083925 64 11484ft 223kts
09-May-23 13:39 36.349071 -109.016243 63 11466ft 225kts
09-May-23 13:40 36.378979 -108.948303 64 11490ft 224kts
09-May-23 13:41 36.409024 -108.879857 63 11417ft 229kts
09-May-23 13:42 36.439748 -108.809946 63 10914ft 230kts
09-May-23 13:43 36.471926 -108.741959 58 10396ft 227kts
09-May-23 13:44 36.505412 -108.676669 59 9890ft 220kts
09-May-23 13:45 36.537712 -108.613540 58 9381ft 213kts
09-May-23 13:46 36.568924 -108.552187 58 8875ft 206kts
09-May-23 13:47 36.598722 -108.493270 58 8363ft 196kts
09-May-23 13:48 36.626996 -108.437363 58 7839ft 180kts
09-May-23 13:49 36.655383 -108.391833 52 7524ft 156kts
09-May-23 13:50 36.681194 -108.351539 52 7523ft 143kts
09-May-23 13:51 36.706623 -108.312026 53 6983ft 124kts
09-May-23 13:52 36.722820 -108.279294 65 6183ft 98kts
09-May-23 13:53 36.734044 -108.249931 66 5672ft 94kts
09-May-23 13:54 36.739967 -108.233421 173 5507ft 0kts
09-May-23 13:55 36.738604 -108.234553 248 5506ft 11kts
09-May-23 13:56 36.738284 -108.235238 156 5506ft 0kts

Navigation Log

Ident Type
Flight plan parsing failed, navigation log unavailable